sensor_id;sensor_type;location;lat;lon;timestamp;pressure;altitude;pressure_sealevel;temperature;humidity
8318;BME280;4196;48.926;8.964;2022-08-03T00:01:18;99068.59;;;17.68;89.34
8318;BME280;4196;48.926;8.964;2022-08-03T00:04:05;99067.88;;;17.62;89.60
8318;BME280;4196;48.926;8.964;2022-08-03T00:06:52;99037.84;;;17.46;89.86
8318;BME280;4196;48.926;8.964;2022-08-03T00:09:38;99026.75;;;17.38;90.60
8318;BME280;4196;48.926;8.964;2022-08-03T00:12:25;99053.34;;;17.52;90.61
8318;BME280;4196;48.926;8.964;2022-08-03T00:15:11;99032.09;;;17.35;90.41
8318;BME280;4196;48.926;8.964;2022-08-03T00:18:02;99012.41;;;17.22;90.30
8318;BME280;4196;48.926;8.964;2022-08-03T00:20:48;99022.03;;;17.21;90.76
8318;BME280;4196;48.926;8.964;2022-08-03T00:23:34;99045.16;;;17.35;90.20
8318;BME280;4196;48.926;8.964;2022-08-03T00:26:38;99036.88;;;17.21;90.51
8318;BME280;4196;48.926;8.964;2022-08-03T00:29:24;99035.88;;;17.25;91.11
8318;BME280;4196;48.926;8.964;2022-08-03T00:32:10;98999.09;;;17.01;91.39
8318;BME280;4196;48.926;8.964;2022-08-03T00:34:57;99044.63;;;17.24;92.09
8318;BME280;4196;48.926;8.964;2022-08-03T00:37:44;99037.91;;;17.15;92.70
8318;BME280;4196;48.926;8.964;2022-08-03T00:40:30;99045.50;;;17.23;92.28
8318;BME280;4196;48.926;8.964;2022-08-03T00:43:17;99021.81;;;16.99;91.88
8318;BME280;4196;48.926;8.964;2022-08-03T00:46:03;99037.19;;;17.10;92.39
8318;BME280;4196;48.926;8.964;2022-08-03T00:48:50;99046.81;;;17.08;93.04
8318;BME280;4196;48.926;8.964;2022-08-03T00:51:37;99038.13;;;17.07;93.31
8318;BME280;4196;48.926;8.964;2022-08-03T00:54:24;99018.56;;;16.91;93.16
8318;BME280;4196;48.926;8.964;2022-08-03T00:57:10;99017.88;;;16.84;93.24
8318;BME280;4196;48.926;8.964;2022-08-03T00:59:57;99020.44;;;16.86;93.96
8318;BME280;4196;48.926;8.964;2022-08-03T01:02:46;98981.06;;;16.59;93.56
8318;BME280;4196;48.926;8.964;2022-08-03T01:05:39;99013.78;;;16.76;93.60
8318;BME280;4196;48.926;8.964;2022-08-03T01:08:47;99021.50;;;16.79;93.39
8318;BME280;4196;48.926;8.964;2022-08-03T01:11:42;99042.25;;;16.85;93.68
8318;BME280;4196;48.926;8.964;2022-08-03T01:18:08;99020.34;;;16.56;94.48
8318;BME280;4196;48.926;8.964;2022-08-03T01:20:57;98975.72;;;16.33;94.84
8318;BME280;4196;48.926;8.964;2022-08-03T01:24:10;99031.56;;;16.61;95.01
8318;BME280;4196;48.926;8.964;2022-08-03T01:30:07;99035.97;;;16.59;96.30
8318;BME280;4196;48.926;8.964;2022-08-03T01:33:05;99018.94;;;16.46;96.50
8318;BME280;4196;48.926;8.964;2022-08-03T01:36:06;99005.38;;;16.32;97.38
8318;BME280;4196;48.926;8.964;2022-08-03T01:38:58;99027.63;;;16.45;97.60
8318;BME280;4196;48.926;8.964;2022-08-03T01:41:49;99019.03;;;16.41;98.14
8318;BME280;4196;48.926;8.964;2022-08-03T01:44:42;99017.31;;;16.40;97.72
8318;BME280;4196;48.926;8.964;2022-08-03T01:47:30;98995.91;;;16.28;97.96
8318;BME280;4196;48.926;8.964;2022-08-03T01:50:20;98991.69;;;16.22;98.45
8318;BME280;4196;48.926;8.964;2022-08-03T01:53:08;98953.88;;;16.03;98.67
8318;BME280;4196;48.926;8.964;2022-08-03T01:55:57;98990.81;;;16.22;98.46
8318;BME280;4196;48.926;8.964;2022-08-03T01:58:45;98988.28;;;16.18;97.16
8318;BME280;4196;48.926;8.964;2022-08-03T02:01:34;98986.72;;;16.13;97.14
8318;BME280;4196;48.926;8.964;2022-08-03T02:04:42;98972.13;;;16.04;97.53
8318;BME280;4196;48.926;8.964;2022-08-03T02:07:32;98984.19;;;16.08;97.95
8318;BME280;4196;48.926;8.964;2022-08-03T02:10:20;98968.13;;;15.91;98.04
8318;BME280;4196;48.926;8.964;2022-08-03T02:13:22;98963.06;;;15.85;98.27
8318;BME280;4196;48.926;8.964;2022-08-03T02:16:10;98986.22;;;15.97;98.61
8318;BME280;4196;48.926;8.964;2022-08-03T02:18:59;98996.53;;;16.03;98.89
8318;BME280;4196;48.926;8.964;2022-08-03T02:21:47;98952.09;;;15.70;99.16
8318;BME280;4196;48.926;8.964;2022-08-03T02:24:46;99017.47;;;16.02;99.18
8318;BME280;4196;48.926;8.964;2022-08-03T02:27:40;98991.78;;;15.85;99.63
8318;BME280;4196;48.926;8.964;2022-08-03T02:30:33;98982.31;;;15.79;99.79
8318;BME280;4196;48.926;8.964;2022-08-03T02:33:27;98992.78;;;15.79;99.92
8318;BME280;4196;48.926;8.964;2022-08-03T02:36:19;99012.59;;;15.88;100.00
8318;BME280;4196;48.926;8.964;2022-08-03T02:39:10;99020.38;;;15.89;100.00
8318;BME280;4196;48.926;8.964;2022-08-03T02:41:57;98993.78;;;15.74;99.94
8318;BME280;4196;48.926;8.964;2022-08-03T02:44:48;98980.88;;;15.69;100.00
8318;BME280;4196;48.926;8.964;2022-08-03T02:47:37;98993.75;;;15.75;100.00
8318;BME280;4196;48.926;8.964;2022-08-03T02:50:41;98982.44;;;15.75;100.00
8318;BME280;4196;48.926;8.964;2022-08-03T02:53:29;98991.13;;;15.75;100.00
8318;BME280;4196;48.926;8.964;2022-08-03T02:56:17;98968.09;;;15.55;100.00
8318;BME280;4196;48.926;8.964;2022-08-03T02:59:05;98990.44;;;15.68;100.00
8318;BME280;4196;48.926;8.964;2022-08-03T03:01:53;98984.50;;;15.60;100.00
8318;BME280;4196;48.926;8.964;2022-08-03T03:04:41;98993.25;;;15.59;100.00
8318;BME280;4196;48.926;8.964;2022-08-03T03:07:48;98958.91;;;15.39;100.00
8318;BME280;4196;48.926;8.964;2022-08-03T03:10:38;98963.25;;;15.40;100.00
8318;BME280;4196;48.926;8.964;2022-08-03T03:13:28;98971.97;;;15.39;100.00
8318;BME280;4196;48.926;8.964;2022-08-03T03:16:15;98984.09;;;15.41;100.00
8318;BME280;4196;48.926;8.964;2022-08-03T03:19:03;98989.13;;;15.49;100.00
8318;BME280;4196;48.926;8.964;2022-08-03T03:21:50;98968.56;;;15.37;100.00
8318;BME280;4196;48.926;8.964;2022-08-03T03:24:38;98988.34;;;15.45;100.00
8318;BME280;4196;48.926;8.964;2022-08-03T03:27:27;98995.28;;;15.46;100.00
8318;BME280;4196;48.926;8.964;2022-08-03T03:30:15;98966.06;;;15.32;100.00
8318;BME280;4196;48.926;8.964;2022-08-03T03:33:01;98977.34;;;15.33;100.00
8318;BME280;4196;48.926;8.964;2022-08-03T03:35:48;98979.13;;;15.31;100.00
8318;BME280;4196;48.926;8.964;2022-08-03T03:38:36;99001.50;;;15.41;100.00
8318;BME280;4196;48.926;8.964;2022-08-03T03:41:23;98991.41;;;15.26;100.00
8318;BME280;4196;48.926;8.964;2022-08-03T03:44:09;98947.69;;;14.98;100.00
8318;BME280;4196;48.926;8.964;2022-08-03T03:46:56;98968.28;;;15.10;100.00
8318;BME280;4196;48.926;8.964;2022-08-03T03:49:43;98998.47;;;15.20;100.00
8318;BME280;4196;48.926;8.964;2022-08-03T03:52:31;98993.41;;;15.14;100.00
8318;BME280;4196;48.926;8.964;2022-08-03T03:55:17;99014.00;;;15.27;100.00
8318;BME280;4196;48.926;8.964;2022-08-03T03:58:04;98985.69;;;15.10;100.00
8318;BME280;4196;48.926;8.964;2022-08-03T04:00:51;98982.25;;;15.08;100.00
8318;BME280;4196;48.926;8.964;2022-08-03T04:03:39;99002.03;;;15.16;100.00
8318;BME280;4196;48.926;8.964;2022-08-03T04:06:25;98972.81;;;15.02;100.00
8318;BME280;4196;48.926;8.964;2022-08-03T04:09:31;98964.22;;;14.97;100.00
8318;BME280;4196;48.926;8.964;2022-08-03T04:12:39;98987.47;;;15.08;100.00
8318;BME280;4196;48.926;8.964;2022-08-03T04:15:37;98981.41;;;15.06;100.00
8318;BME280;4196;48.926;8.964;2022-08-03T04:18:26;98999.53;;;15.13;100.00
8318;BME280;4196;48.926;8.964;2022-08-03T04:21:17;99014.22;;;15.17;100.00
8318;BME280;4196;48.926;8.964;2022-08-03T04:24:05;99003.84;;;15.14;100.00
8318;BME280;4196;48.926;8.964;2022-08-03T04:26:55;99033.03;;;15.32;100.00
8318;BME280;4196;48.926;8.964;2022-08-03T04:29:46;99022.50;;;15.35;100.00
8318;BME280;4196;48.926;8.964;2022-08-03T04:32:36;99004.47;;;15.24;100.00
8318;BME280;4196;48.926;8.964;2022-08-03T04:35:31;98985.59;;;15.14;100.00
8318;BME280;4196;48.926;8.964;2022-08-03T04:38:47;99033.50;;;15.49;100.00
8318;BME280;4196;48.926;8.964;2022-08-03T04:41:37;99020.59;;;15.43;100.00
8318;BME280;4196;48.926;8.964;2022-08-03T04:44:45;98995.31;;;15.45;100.00
8318;BME280;4196;48.926;8.964;2022-08-03T04:47:33;98961.75;;;15.30;100.00
8318;BME280;4196;48.926;8.964;2022-08-03T04:50:20;98997.56;;;15.60;100.00
8318;BME280;4196;48.926;8.964;2022-08-03T04:53:22;99013.72;;;15.78;100.00
8318;BME280;4196;48.926;8.964;2022-08-03T04:56:08;99016.00;;;15.91;100.00
8318;BME280;4196;48.926;8.964;2022-08-03T04:58:55;98997.44;;;16.02;100.00
8318;BME280;4196;48.926;8.964;2022-08-03T05:01:41;99008.06;;;16.29;100.00
8318;BME280;4196;48.926;8.964;2022-08-03T05:04:28;99016.69;;;16.63;98.34
8318;BME280;4196;48.926;8.964;2022-08-03T05:07:16;99013.94;;;17.29;94.75
8318;BME280;4196;48.926;8.964;2022-08-03T05:10:11;99029.59;;;18.63;87.89
8318;BME280;4196;48.926;8.964;2022-08-03T05:13:01;98999.09;;;19.75;79.56
8318;BME280;4196;48.926;8.964;2022-08-03T05:15:47;98992.69;;;21.03;70.80
8318;BME280;4196;48.926;8.964;2022-08-03T05:18:34;99024.59;;;22.25;63.99
8318;BME280;4196;48.926;8.964;2022-08-03T05:21:21;99009.63;;;23.09;60.55
8318;BME280;4196;48.926;8.964;2022-08-03T05:24:07;99012.63;;;23.96;55.95
8318;BME280;4196;48.926;8.964;2022-08-03T05:26:53;99021.78;;;24.51;54.91
8318;BME280;4196;48.926;8.964;2022-08-03T05:29:40;99015.19;;;25.01;53.28
8318;BME280;4196;48.926;8.964;2022-08-03T05:32:27;99037.28;;;25.43;51.81
8318;BME280;4196;48.926;8.964;2022-08-03T05:35:13;99023.00;;;25.72;50.62
8318;BME280;4196;48.926;8.964;2022-08-03T05:38:20;98995.28;;;25.64;49.99
8318;BME280;4196;48.926;8.964;2022-08-03T05:41:14;98981.56;;;25.57;50.22
8318;BME280;4196;48.926;8.964;2022-08-03T05:44:09;99027.84;;;24.96;52.31
8318;BME280;4196;48.926;8.964;2022-08-03T05:46:55;99024.53;;;24.78;52.35
8318;BME280;4196;48.926;8.964;2022-08-03T05:49:42;99019.66;;;24.11;55.36
8318;BME280;4196;48.926;8.964;2022-08-03T05:52:29;99022.50;;;23.47;58.08
8318;BME280;4196;48.926;8.964;2022-08-03T05:55:16;99017.88;;;22.85;57.77
8318;BME280;4196;48.926;8.964;2022-08-03T05:58:03;99018.69;;;22.37;61.83
8318;BME280;4196;48.926;8.964;2022-08-03T06:00:50;99000.47;;;21.79;63.98
8318;BME280;4196;48.926;8.964;2022-08-03T06:03:36;99013.94;;;21.55;65.80
8318;BME280;4196;48.926;8.964;2022-08-03T06:06:23;99016.41;;;21.20;67.38
8318;BME280;4196;48.926;8.964;2022-08-03T06:09:12;99000.69;;;20.81;69.18
8318;BME280;4196;48.926;8.964;2022-08-03T06:11:59;99012.28;;;20.77;70.83
8318;BME280;4196;48.926;8.964;2022-08-03T06:14:45;99017.72;;;20.72;69.97
8318;BME280;4196;48.926;8.964;2022-08-03T06:17:32;99020.44;;;20.71;72.56
8318;BME280;4196;48.926;8.964;2022-08-03T06:20:23;99013.75;;;20.64;72.27
8318;BME280;4196;48.926;8.964;2022-08-03T06:23:12;99018.63;;;20.73;72.33
8318;BME280;4196;48.926;8.964;2022-08-03T06:26:03;98996.41;;;20.60;73.30
8318;BME280;4196;48.926;8.964;2022-08-03T06:28:49;98998.84;;;20.83;73.78
8318;BME280;4196;48.926;8.964;2022-08-03T06:31:38;99017.09;;;21.07;73.60
8318;BME280;4196;48.926;8.964;2022-08-03T06:34:25;99017.44;;;21.18;72.84
8318;BME280;4196;48.926;8.964;2022-08-03T06:37:20;99018.06;;;21.23;74.12
8318;BME280;4196;48.926;8.964;2022-08-03T06:40:07;99022.06;;;21.51;71.20
8318;BME280;4196;48.926;8.964;2022-08-03T06:42:54;98991.69;;;21.43;71.76
8318;BME280;4196;48.926;8.964;2022-08-03T06:45:41;99008.81;;;21.88;67.59
8318;BME280;4196;48.926;8.964;2022-08-03T06:48:27;99007.41;;;21.99;69.66
8318;BME280;4196;48.926;8.964;2022-08-03T06:51:14;99006.78;;;22.11;70.30
8318;BME280;4196;48.926;8.964;2022-08-03T06:54:00;99012.88;;;22.30;70.44
8318;BME280;4196;48.926;8.964;2022-08-03T06:56:47;99002.91;;;22.53;69.21
8318;BME280;4196;48.926;8.964;2022-08-03T06:59:33;99026.91;;;22.99;66.19
8318;BME280;4196;48.926;8.964;2022-08-03T07:02:40;99010.53;;;23.08;65.68
8318;BME280;4196;48.926;8.964;2022-08-03T07:05:26;99009.19;;;23.48;64.15
8318;BME280;4196;48.926;8.964;2022-08-03T07:08:14;99039.97;;;23.81;65.32
8318;BME280;4196;48.926;8.964;2022-08-03T07:11:00;99011.50;;;23.86;62.87
8318;BME280;4196;48.926;8.964;2022-08-03T07:13:47;99010.38;;;23.90;64.02
8318;BME280;4196;48.926;8.964;2022-08-03T07:16:33;99011.31;;;24.19;60.50
8318;BME280;4196;48.926;8.964;2022-08-03T07:19:20;99002.88;;;24.43;59.43
8318;BME280;4196;48.926;8.964;2022-08-03T07:22:06;98989.47;;;24.60;56.81
8318;BME280;4196;48.926;8.964;2022-08-03T07:24:55;98993.22;;;24.85;56.81
8318;BME280;4196;48.926;8.964;2022-08-03T07:27:43;98978.41;;;24.82;55.05
8318;BME280;4196;48.926;8.964;2022-08-03T07:30:35;99014.06;;;25.19;56.41
8318;BME280;4196;48.926;8.964;2022-08-03T07:33:21;99014.19;;;25.45;53.80
8318;BME280;4196;48.926;8.964;2022-08-03T07:36:07;99025.44;;;25.48;53.98
8318;BME280;4196;48.926;8.964;2022-08-03T07:38:54;98991.25;;;25.44;54.99
8318;BME280;4196;48.926;8.964;2022-08-03T07:41:40;98993.66;;;25.61;54.25
8318;BME280;4196;48.926;8.964;2022-08-03T07:44:27;98999.69;;;25.77;54.84
8318;BME280;4196;48.926;8.964;2022-08-03T07:47:24;99006.09;;;25.88;54.57
8318;BME280;4196;48.926;8.964;2022-08-03T07:50:21;98975.53;;;25.82;54.42
8318;BME280;4196;48.926;8.964;2022-08-03T07:53:08;99005.53;;;26.22;53.97
8318;BME280;4196;48.926;8.964;2022-08-03T07:55:54;99003.09;;;26.32;52.16
8318;BME280;4196;48.926;8.964;2022-08-03T07:58:42;98998.09;;;26.27;51.82
8318;BME280;4196;48.926;8.964;2022-08-03T08:01:28;98986.22;;;26.33;52.39
8318;BME280;4196;48.926;8.964;2022-08-03T08:04:15;99001.56;;;26.55;51.09
8318;BME280;4196;48.926;8.964;2022-08-03T08:07:02;99017.25;;;26.84;50.87
8318;BME280;4196;48.926;8.964;2022-08-03T08:09:48;98998.78;;;26.69;52.39
8318;BME280;4196;48.926;8.964;2022-08-03T08:12:35;98992.91;;;26.90;50.60
8318;BME280;4196;48.926;8.964;2022-08-03T08:15:21;98986.84;;;26.88;52.26
8318;BME280;4196;48.926;8.964;2022-08-03T08:18:08;98981.50;;;27.13;48.15
8318;BME280;4196;48.926;8.964;2022-08-03T08:20:54;98985.56;;;27.19;47.81
8318;BME280;4196;48.926;8.964;2022-08-03T08:23:41;98972.97;;;27.34;47.08
8318;BME280;4196;48.926;8.964;2022-08-03T08:26:42;98973.47;;;27.39;47.43
8318;BME280;4196;48.926;8.964;2022-08-03T08:29:29;98988.47;;;27.64;47.49
8318;BME280;4196;48.926;8.964;2022-08-03T08:32:15;99005.34;;;27.76;47.37
8318;BME280;4196;48.926;8.964;2022-08-03T08:35:06;98990.47;;;27.73;47.25
8318;BME280;4196;48.926;8.964;2022-08-03T08:37:53;98983.50;;;27.83;46.20
8318;BME280;4196;48.926;8.964;2022-08-03T08:40:39;98988.72;;;27.85;46.63
8318;BME280;4196;48.926;8.964;2022-08-03T08:43:26;98985.22;;;27.84;46.31
8318;BME280;4196;48.926;8.964;2022-08-03T08:46:14;98989.88;;;28.05;45.23
8318;BME280;4196;48.926;8.964;2022-08-03T08:49:09;98990.53;;;28.31;45.02
8318;BME280;4196;48.926;8.964;2022-08-03T08:51:57;99004.88;;;28.41;44.62
8318;BME280;4196;48.926;8.964;2022-08-03T08:54:46;98998.34;;;28.45;43.47
8318;BME280;4196;48.926;8.964;2022-08-03T08:57:39;98983.81;;;28.60;40.41
8318;BME280;4196;48.926;8.964;2022-08-03T09:00:29;98965.16;;;28.38;42.04
8318;BME280;4196;48.926;8.964;2022-08-03T09:03:16;98981.44;;;28.57;41.78
8318;BME280;4196;48.926;8.964;2022-08-03T09:06:15;98964.56;;;28.57;40.37
8318;BME280;4196;48.926;8.964;2022-08-03T09:09:02;98964.69;;;28.67;39.77
8318;BME280;4196;48.926;8.964;2022-08-03T09:11:48;98990.66;;;28.87;40.64
8318;BME280;4196;48.926;8.964;2022-08-03T09:14:50;98980.44;;;28.92;40.53
8318;BME280;4196;48.926;8.964;2022-08-03T09:18:01;98987.13;;;29.20;39.39
8318;BME280;4196;48.926;8.964;2022-08-03T09:20:48;98985.53;;;29.18;39.35
8318;BME280;4196;48.926;8.964;2022-08-03T09:23:49;98981.19;;;29.17;39.86
8318;BME280;4196;48.926;8.964;2022-08-03T09:26:49;98980.78;;;29.32;40.90
8318;BME280;4196;48.926;8.964;2022-08-03T09:29:39;98950.59;;;29.32;38.78
8318;BME280;4196;48.926;8.964;2022-08-03T09:32:25;98971.06;;;29.43;40.74
8318;BME280;4196;48.926;8.964;2022-08-03T09:35:13;98954.66;;;29.58;38.33
8318;BME280;4196;48.926;8.964;2022-08-03T09:38:20;98961.31;;;29.64;37.55
8318;BME280;4196;48.926;8.964;2022-08-03T09:41:17;98974.44;;;29.88;37.24
8318;BME280;4196;48.926;8.964;2022-08-03T09:44:03;98962.41;;;29.94;37.90
8318;BME280;4196;48.926;8.964;2022-08-03T09:46:52;98976.53;;;30.05;37.80
8318;BME280;4196;48.926;8.964;2022-08-03T09:49:40;98965.88;;;30.05;37.92
8318;BME280;4196;48.926;8.964;2022-08-03T09:52:38;98971.09;;;30.28;36.89
8318;BME280;4196;48.926;8.964;2022-08-03T09:55:52;98957.06;;;30.15;37.64
8318;BME280;4196;48.926;8.964;2022-08-03T09:58:59;98962.94;;;30.29;37.02
8318;BME280;4196;48.926;8.964;2022-08-03T10:01:45;98961.59;;;30.35;36.92
8318;BME280;4196;48.926;8.964;2022-08-03T10:04:32;98979.88;;;30.40;37.10
8318;BME280;4196;48.926;8.964;2022-08-03T10:07:21;98954.22;;;30.27;36.44
8318;BME280;4196;48.926;8.964;2022-08-03T10:10:08;98943.00;;;30.33;37.54
8318;BME280;4196;48.926;8.964;2022-08-03T10:13:17;98960.66;;;30.46;36.16
8318;BME280;4196;48.926;8.964;2022-08-03T10:16:04;98928.19;;;30.20;36.81
8318;BME280;4196;48.926;8.964;2022-08-03T10:19:10;98933.63;;;30.39;36.06
8318;BME280;4196;48.926;8.964;2022-08-03T10:22:02;98951.84;;;30.55;36.76
8318;BME280;4196;48.926;8.964;2022-08-03T10:24:58;98953.13;;;30.61;36.43
8318;BME280;4196;48.926;8.964;2022-08-03T10:27:47;98922.84;;;30.50;35.91
8318;BME280;4196;48.926;8.964;2022-08-03T10:30:38;98911.03;;;30.53;36.22
8318;BME280;4196;48.926;8.964;2022-08-03T10:33:27;98943.03;;;30.74;34.99
8318;BME280;4196;48.926;8.964;2022-08-03T10:36:36;98917.25;;;30.53;35.28
8318;BME280;4196;48.926;8.964;2022-08-03T10:39:28;98913.03;;;30.61;35.66
8318;BME280;4196;48.926;8.964;2022-08-03T10:42:14;98929.06;;;30.91;35.58
8318;BME280;4196;48.926;8.964;2022-08-03T10:45:06;98933.16;;;30.95;34.54
8318;BME280;4196;48.926;8.964;2022-08-03T10:47:55;98884.16;;;30.75;34.08
8318;BME280;4196;48.926;8.964;2022-08-03T10:50:42;98911.47;;;30.89;34.89
8318;BME280;4196;48.926;8.964;2022-08-03T10:53:38;98928.69;;;31.06;37.05
8318;BME280;4196;48.926;8.964;2022-08-03T11:05:49;98895.56;;;31.37;33.77
8318;BME280;4196;48.926;8.964;2022-08-03T11:08:37;98901.44;;;31.50;33.23
8318;BME280;4196;48.926;8.964;2022-08-03T11:11:24;98910.72;;;31.37;33.58
8318;BME280;4196;48.926;8.964;2022-08-03T11:14:19;98873.22;;;31.08;33.12
8318;BME280;4196;48.926;8.964;2022-08-03T11:17:07;98888.59;;;31.25;33.84
8318;BME280;4196;48.926;8.964;2022-08-03T11:19:59;98883.56;;;31.41;34.39
8318;BME280;4196;48.926;8.964;2022-08-03T11:22:49;98888.47;;;31.65;33.88
8318;BME280;4196;48.926;8.964;2022-08-03T11:26:07;98891.28;;;31.83;34.03
8318;BME280;4196;48.926;8.964;2022-08-03T11:29:26;98893.81;;;31.94;34.05
8318;BME280;4196;48.926;8.964;2022-08-03T11:35:32;98857.47;;;31.82;33.80
8318;BME280;4196;48.926;8.964;2022-08-03T11:38:20;98891.66;;;32.17;32.54
8318;BME280;4196;48.926;8.964;2022-08-03T11:41:32;98895.03;;;32.19;32.20
8318;BME280;4196;48.926;8.964;2022-08-03T11:44:49;98884.63;;;32.16;32.43
8318;BME280;4196;48.926;8.964;2022-08-03T11:47:37;98895.59;;;32.23;32.87
8318;BME280;4196;48.926;8.964;2022-08-03T11:50:36;98878.22;;;32.27;31.37
8318;BME280;4196;48.926;8.964;2022-08-03T11:53:23;98855.31;;;32.15;31.39
8318;BME280;4196;48.926;8.964;2022-08-03T11:56:09;98842.47;;;32.09;31.76
8318;BME280;4196;48.926;8.964;2022-08-03T11:58:58;98854.13;;;32.27;31.30
8318;BME280;4196;48.926;8.964;2022-08-03T12:02:14;98873.69;;;32.37;31.62
8318;BME280;4196;48.926;8.964;2022-08-03T12:05:02;98857.19;;;32.32;32.38
8318;BME280;4196;48.926;8.964;2022-08-03T12:07:48;98846.34;;;32.61;35.07
8318;BME280;4196;48.926;8.964;2022-08-03T12:10:52;98865.81;;;32.91;33.37
8318;BME280;4196;48.926;8.964;2022-08-03T12:13:46;98862.88;;;33.12;31.13
8318;BME280;4196;48.926;8.964;2022-08-03T12:16:53;98861.34;;;33.09;31.08
8318;BME280;4196;48.926;8.964;2022-08-03T12:19:43;98824.09;;;32.79;33.18
8318;BME280;4196;48.926;8.964;2022-08-03T12:22:34;98838.25;;;33.16;32.19
8318;BME280;4196;48.926;8.964;2022-08-03T12:25:24;98825.78;;;33.25;32.16
8318;BME280;4196;48.926;8.964;2022-08-03T12:28:25;98845.41;;;33.43;31.01
8318;BME280;4196;48.926;8.964;2022-08-03T12:31:23;98829.59;;;33.40;29.63
8318;BME280;4196;48.926;8.964;2022-08-03T12:34:10;98833.75;;;33.53;29.64
8318;BME280;4196;48.926;8.964;2022-08-03T12:36:57;98830.69;;;33.48;29.35
8318;BME280;4196;48.926;8.964;2022-08-03T12:39:51;98806.00;;;33.26;30.49
8318;BME280;4196;48.926;8.964;2022-08-03T12:42:49;98838.50;;;33.23;29.47
8318;BME280;4196;48.926;8.964;2022-08-03T12:45:35;98841.34;;;33.22;29.55
8318;BME280;4196;48.926;8.964;2022-08-03T12:48:22;98844.78;;;33.14;29.32
8318;BME280;4196;48.926;8.964;2022-08-03T12:51:12;98809.63;;;32.89;29.63
8318;BME280;4196;48.926;8.964;2022-08-03T12:54:00;98822.09;;;32.81;29.12
8318;BME280;4196;48.926;8.964;2022-08-03T12:57:06;98824.34;;;32.85;29.57
8318;BME280;4196;48.926;8.964;2022-08-03T12:59:53;98809.69;;;32.80;30.17
8318;BME280;4196;48.926;8.964;2022-08-03T13:02:41;98813.22;;;33.08;29.64
8318;BME280;4196;48.926;8.964;2022-08-03T13:05:42;98814.09;;;32.99;30.19
8318;BME280;4196;48.926;8.964;2022-08-03T13:08:29;98797.53;;;32.85;29.52
8318;BME280;4196;48.926;8.964;2022-08-03T13:11:25;98830.97;;;33.09;31.12
8318;BME280;4196;48.926;8.964;2022-08-03T13:14:32;98809.28;;;33.20;29.84
8318;BME280;4196;48.926;8.964;2022-08-03T13:17:18;98820.53;;;33.41;29.53
8318;BME280;4196;48.926;8.964;2022-08-03T13:20:05;98813.78;;;33.37;29.00
8318;BME280;4196;48.926;8.964;2022-08-03T13:22:52;98814.66;;;33.56;29.24
8318;BME280;4196;48.926;8.964;2022-08-03T13:25:44;98817.63;;;33.53;29.21
8318;BME280;4196;48.926;8.964;2022-08-03T13:28:41;98832.47;;;33.65;29.16
8318;BME280;4196;48.926;8.964;2022-08-03T13:31:28;98809.31;;;33.64;31.75
8318;BME280;4196;48.926;8.964;2022-08-03T13:34:14;98816.91;;;33.95;30.46
8318;BME280;4196;48.926;8.964;2022-08-03T13:37:07;98794.19;;;34.07;28.81
8318;BME280;4196;48.926;8.964;2022-08-03T13:39:55;98807.13;;;34.11;28.22
8318;BME280;4196;48.926;8.964;2022-08-03T13:42:45;98792.53;;;33.88;28.61
8318;BME280;4196;48.926;8.964;2022-08-03T13:45:32;98784.78;;;33.85;28.41
8318;BME280;4196;48.926;8.964;2022-08-03T13:48:18;98795.31;;;33.78;29.09
8318;BME280;4196;48.926;8.964;2022-08-03T13:51:22;98807.22;;;34.02;28.76
8318;BME280;4196;48.926;8.964;2022-08-03T13:54:08;98778.59;;;33.84;28.51
8318;BME280;4196;48.926;8.964;2022-08-03T13:56:54;98749.94;;;33.67;28.38
8318;BME280;4196;48.926;8.964;2022-08-03T14:00:02;98788.34;;;33.94;27.98
8318;BME280;4196;48.926;8.964;2022-08-03T14:02:49;98775.19;;;33.82;29.27
8318;BME280;4196;48.926;8.964;2022-08-03T14:05:36;98770.88;;;33.63;28.28
8318;BME280;4196;48.926;8.964;2022-08-03T14:08:23;98779.97;;;33.62;28.87
8318;BME280;4196;48.926;8.964;2022-08-03T14:11:10;98775.22;;;33.56;28.13
8318;BME280;4196;48.926;8.964;2022-08-03T14:13:57;98767.78;;;33.32;28.60
8318;BME280;4196;48.926;8.964;2022-08-03T14:16:44;98762.09;;;33.35;28.63
8318;BME280;4196;48.926;8.964;2022-08-03T14:19:34;98784.63;;;33.42;28.78
8318;BME280;4196;48.926;8.964;2022-08-03T14:22:38;98742.72;;;33.24;29.63
8318;BME280;4196;48.926;8.964;2022-08-03T14:25:25;98749.06;;;33.40;28.67
8318;BME280;4196;48.926;8.964;2022-08-03T14:28:12;98758.25;;;33.56;29.13
8318;BME280;4196;48.926;8.964;2022-08-03T14:30:58;98774.09;;;33.67;28.45
8318;BME280;4196;48.926;8.964;2022-08-03T14:33:45;98760.03;;;33.47;28.22
8318;BME280;4196;48.926;8.964;2022-08-03T14:36:31;98780.56;;;33.38;28.58
8318;BME280;4196;48.926;8.964;2022-08-03T14:39:17;98744.38;;;33.42;29.60
8318;BME280;4196;48.926;8.964;2022-08-03T14:42:04;98771.25;;;33.69;30.68
8318;BME280;4196;48.926;8.964;2022-08-03T14:44:51;98752.94;;;33.64;28.57
8318;BME280;4196;48.926;8.964;2022-08-03T14:47:37;98773.53;;;33.81;28.64
8318;BME280;4196;48.926;8.964;2022-08-03T14:50:43;98764.00;;;33.43;28.31
8318;BME280;4196;48.926;8.964;2022-08-03T14:53:36;98768.28;;;33.54;28.55
8318;BME280;4196;48.926;8.964;2022-08-03T14:56:22;98766.66;;;33.61;28.93
8318;BME280;4196;48.926;8.964;2022-08-03T14:59:09;98763.94;;;33.53;28.41
8318;BME280;4196;48.926;8.964;2022-08-03T15:01:55;98752.09;;;33.46;28.93
8318;BME280;4196;48.926;8.964;2022-08-03T15:04:52;98721.47;;;33.30;28.67
8318;BME280;4196;48.926;8.964;2022-08-03T15:07:39;98749.50;;;33.54;30.26
8318;BME280;4196;48.926;8.964;2022-08-03T15:10:25;98740.94;;;33.32;28.39
8318;BME280;4196;48.926;8.964;2022-08-03T15:13:29;98728.09;;;33.18;28.76
8318;BME280;4196;48.926;8.964;2022-08-03T15:16:16;98727.75;;;33.21;28.99
8318;BME280;4196;48.926;8.964;2022-08-03T15:19:02;98726.56;;;33.15;28.11
8318;BME280;4196;48.926;8.964;2022-08-03T15:22:09;98721.97;;;33.08;28.80
8318;BME280;4196;48.926;8.964;2022-08-03T15:24:58;98695.53;;;32.95;28.59
8318;BME280;4196;48.926;8.964;2022-08-03T15:27:44;98717.94;;;33.04;28.50
8318;BME280;4196;48.926;8.964;2022-08-03T15:30:53;98712.69;;;33.02;29.05
8318;BME280;4196;48.926;8.964;2022-08-03T15:33:39;98705.44;;;32.94;28.59
8318;BME280;4196;48.926;8.964;2022-08-03T15:36:26;98724.19;;;33.12;28.68
8318;BME280;4196;48.926;8.964;2022-08-03T15:39:13;98698.00;;;32.88;28.48
8318;BME280;4196;48.926;8.964;2022-08-03T15:41:59;98710.00;;;33.02;29.03
8318;BME280;4196;48.926;8.964;2022-08-03T15:44:45;98693.00;;;32.93;29.24
8318;BME280;4196;48.926;8.964;2022-08-03T15:47:32;98726.88;;;33.12;29.29